createdAt,value
2018-05-01T00:00:51.869Z,9.90
2018-05-01T00:03:18.640Z,9.90
2018-05-01T00:05:45.360Z,10.00
2018-05-01T00:08:11.330Z,10.00
2018-05-01T00:10:37.320Z,10.00
2018-05-01T00:13:03.291Z,10.10
2018-05-01T00:15:29.246Z,10.10
2018-05-01T00:17:56.034Z,10.00
2018-05-01T00:20:22.028Z,10.00
2018-05-01T00:22:47.995Z,10.10
2018-05-01T00:25:13.995Z,10.00
2018-05-01T00:27:39.949Z,10.00
2018-05-01T00:30:06.655Z,10.00
2018-05-01T00:32:32.647Z,10.00
2018-05-01T00:34:58.607Z,10.10
2018-05-01T00:37:24.586Z,10.10
2018-05-01T00:39:50.578Z,10.00
2018-05-01T00:42:16.534Z,10.10
2018-05-01T00:44:42.486Z,10.00
2018-05-01T00:47:08.696Z,10.00
2018-05-01T00:49:34.662Z,10.10
2018-05-01T00:52:00.631Z,10.10
2018-05-01T00:54:27.372Z,10.00
2018-05-01T00:56:54.086Z,10.00
2018-05-01T00:59:20.070Z,9.90
2018-05-01T01:01:47.000Z,9.80
2018-05-01T01:04:12.963Z,9.80
2018-05-01T01:06:39.681Z,9.90
2018-05-01T01:09:05.686Z,9.80
2018-05-01T01:11:31.661Z,9.80
2018-05-01T01:13:57.623Z,9.80
2018-05-01T01:16:24.362Z,9.80
2018-05-01T01:18:50.334Z,9.80
2018-05-01T01:21:16.587Z,9.80
2018-05-01T01:23:42.553Z,9.70
2018-05-01T01:26:10.007Z,9.70
2018-05-01T01:28:35.969Z,9.70
2018-05-01T01:31:01.941Z,9.70
2018-05-01T01:33:28.203Z,9.80
2018-05-01T01:35:54.047Z,9.70
2018-05-01T01:38:19.930Z,9.70
2018-05-01T01:40:46.006Z,9.70
2018-05-01T01:43:11.843Z,9.70
2018-05-01T01:45:38.088Z,9.70
2018-05-01T01:48:04.123Z,9.70
2018-05-01T01:50:29.950Z,9.60
2018-05-01T01:52:55.802Z,9.60
2018-05-01T01:55:21.649Z,9.60
2018-05-01T01:57:47.480Z,9.50
2018-05-01T02:00:13.326Z,9.60
2018-05-01T02:02:39.896Z,9.60
2018-05-01T02:05:05.717Z,9.50
2018-05-01T02:07:32.639Z,9.60
2018-05-01T02:09:58.468Z,9.50
2018-05-01T02:12:24.317Z,9.60
2018-05-01T02:14:50.175Z,9.50
2018-05-01T02:17:16.737Z,9.50
2018-05-01T02:19:42.577Z,9.50
2018-05-01T02:22:08.550Z,9.50
2018-05-01T02:24:34.366Z,9.50
2018-05-01T02:27:00.279Z,9.40
2018-05-01T02:29:26.265Z,9.30
2018-05-01T02:31:52.095Z,9.30
2018-05-01T02:34:17.925Z,9.20
2018-05-01T02:36:43.765Z,9.20
2018-05-01T02:39:09.585Z,9.20
2018-05-01T02:41:35.410Z,9.20
2018-05-01T02:44:01.261Z,9.20
2018-05-01T02:46:27.090Z,9.20
2018-05-01T02:48:52.995Z,9.20
2018-05-01T02:51:19.148Z,9.20
2018-05-01T02:53:44.985Z,9.20
2018-05-01T02:56:10.818Z,9.20
2018-05-01T02:58:36.723Z,9.10
2018-05-01T03:01:02.555Z,9.10
2018-05-01T03:03:28.388Z,9.00
2018-05-01T03:05:54.237Z,9.10
2018-05-01T03:08:20.105Z,9.00
2018-05-01T03:10:46.687Z,9.00
2018-05-01T03:13:12.662Z,9.00
2018-05-01T03:15:38.485Z,9.00
2018-05-01T03:18:04.316Z,9.00
2018-05-01T03:20:30.146Z,9.00
2018-05-01T03:22:55.984Z,9.00
2018-05-01T03:25:21.863Z,9.00
2018-05-01T03:27:47.712Z,9.00
2018-05-01T03:30:13.534Z,9.10
2018-05-01T03:32:39.354Z,9.10
2018-05-01T03:35:05.956Z,9.10
2018-05-01T03:37:32.017Z,9.10
2018-05-01T03:39:58.121Z,9.10
2018-05-01T03:42:24.134Z,9.10
2018-05-01T03:44:49.989Z,9.10
2018-05-01T03:47:15.817Z,9.10
2018-05-01T03:49:41.681Z,9.20
2018-05-01T03:52:07.515Z,9.20
2018-05-01T03:54:33.346Z,9.20
2018-05-01T03:56:59.198Z,9.20
2018-05-01T03:59:25.764Z,9.10
2018-05-01T04:01:51.639Z,9.10
2018-05-01T04:04:17.587Z,9.10
2018-05-01T04:06:43.507Z,9.10
2018-05-01T04:09:09.338Z,9.10
2018-05-01T04:11:35.207Z,9.00
2018-05-01T04:14:01.027Z,9.00
2018-05-01T04:16:27.044Z,9.00
2018-05-01T04:18:52.896Z,9.00
2018-05-01T04:21:18.756Z,9.00
2018-05-01T04:23:45.324Z,9.00
2018-05-01T04:26:11.184Z,9.00
2018-05-01T04:28:37.310Z,9.00
2018-05-01T04:31:03.137Z,9.00
2018-05-01T04:33:28.989Z,9.00
2018-05-01T04:35:54.819Z,9.00
2018-05-01T04:38:20.669Z,9.00
2018-05-01T04:40:46.562Z,9.00
2018-05-01T04:43:12.390Z,9.00
2018-05-01T04:45:38.222Z,8.90
2018-05-01T04:48:04.547Z,8.90
2018-05-01T04:50:31.115Z,9.00
2018-05-01T04:52:57.013Z,8.90
2018-05-01T04:55:22.865Z,9.00
2018-05-01T04:57:48.785Z,9.00
2018-05-01T05:00:15.351Z,9.00
2018-05-01T05:02:41.329Z,9.00
2018-05-01T05:05:07.153Z,9.00
2018-05-01T05:07:32.991Z,9.00
2018-05-01T05:09:58.863Z,9.00
2018-05-01T05:12:25.443Z,9.10
2018-05-01T05:14:51.281Z,9.00
2018-05-01T05:17:17.530Z,9.10
2018-05-01T05:19:43.345Z,9.10
2018-05-01T05:22:09.170Z,9.10
2018-05-01T05:24:35.006Z,9.10
2018-05-01T05:27:00.839Z,9.20
2018-05-01T05:29:26.673Z,9.20
2018-05-01T05:31:52.566Z,9.20
2018-05-01T05:34:19.167Z,9.20
2018-05-01T05:36:44.995Z,9.10
2018-05-01T05:39:10.966Z,9.20
2018-05-01T05:41:36.802Z,9.10
2018-05-01T05:44:02.630Z,9.10
2018-05-01T05:46:28.481Z,9.10
2018-05-01T05:48:54.382Z,9.10
2018-05-01T05:51:20.961Z,9.00
2018-05-01T05:53:46.808Z,9.00
2018-05-01T05:56:13.386Z,9.10
2018-05-01T05:58:39.212Z,9.10
2018-05-01T06:01:05.131Z,9.20
2018-05-01T06:03:30.910Z,9.30
2018-05-01T06:05:56.753Z,9.50
2018-05-01T06:08:22.808Z,9.80
2018-05-01T06:10:48.658Z,11.70
2018-05-01T06:13:15.247Z,13.60
2018-05-01T06:15:41.105Z,13.60
2018-05-01T06:18:06.942Z,14.50
2018-05-01T06:20:33.569Z,14.20
2018-05-01T06:23:00.338Z,13.90
2018-05-01T06:25:26.163Z,16.40
2018-05-01T06:27:52.009Z,16.20
2018-05-01T06:30:17.869Z,16.60
2018-05-01T06:32:44.431Z,15.30
2018-05-01T06:35:10.281Z,15.30
2018-05-01T06:37:36.158Z,14.40
2018-05-01T06:40:01.991Z,13.80
2018-05-01T06:42:27.831Z,13.70
2018-05-01T06:44:53.725Z,14.30
2018-05-01T06:47:19.571Z,14.00
2018-05-01T06:49:45.414Z,13.70
2018-05-01T06:52:11.263Z,13.10
2018-05-01T06:54:37.081Z,12.80
2018-05-01T06:57:02.915Z,13.20
2018-05-01T06:59:28.793Z,16.60
2018-05-01T07:01:54.638Z,15.80
2018-05-01T07:04:20.575Z,15.30
2018-05-01T07:06:47.736Z,13.50
2018-05-01T07:09:13.795Z,13.60
2018-05-01T07:11:39.630Z,12.90
2018-05-01T07:14:05.673Z,12.60
2018-05-01T07:16:31.501Z,12.40
2018-05-01T07:18:57.334Z,12.30
2018-05-01T07:21:23.325Z,12.30
2018-05-01T07:23:49.173Z,12.60
2018-05-01T07:26:15.333Z,13.10
2018-05-01T07:28:41.377Z,16.20
2018-05-01T07:31:07.206Z,15.90
2018-05-01T07:33:33.032Z,15.20
2018-05-01T07:35:59.373Z,15.00
2018-05-01T07:38:25.202Z,14.50
2018-05-01T07:40:51.110Z,14.20
2018-05-01T07:43:16.973Z,15.30
2018-05-01T07:45:43.107Z,20.00
2018-05-01T07:48:08.945Z,22.80
2018-05-01T07:50:34.799Z,23.90
2018-05-01T07:53:00.634Z,25.00
2018-05-01T07:55:27.214Z,20.10
2018-05-01T07:57:53.822Z,18.60
2018-05-01T08:00:19.722Z,18.60
2018-05-01T08:02:45.514Z,17.30
2018-05-01T08:05:11.525Z,16.40
2018-05-01T08:07:37.351Z,15.90
2018-05-01T08:10:03.186Z,15.40
2018-05-01T08:12:29.229Z,15.20
2018-05-01T08:14:55.156Z,15.10
2018-05-01T08:17:21.109Z,15.10
2018-05-01T08:19:46.953Z,15.70
2018-05-01T08:22:13.544Z,16.70
2018-05-01T08:24:39.384Z,16.70
2018-05-01T08:27:05.333Z,17.30
2018-05-01T08:29:31.153Z,18.60
2018-05-01T08:31:57.003Z,20.10
2018-05-01T08:34:22.868Z,20.50
2018-05-01T08:36:49.620Z,24.80
2018-05-01T08:39:15.483Z,24.70
2018-05-01T08:41:41.350Z,23.30
2018-05-01T08:44:07.214Z,23.40
2018-05-01T08:46:33.033Z,25.80
2018-05-01T08:48:59.079Z,27.50
2018-05-01T08:51:25.019Z,28.90
2018-05-01T08:53:51.070Z,30.20
2018-05-01T08:56:17.843Z,28.30
2018-05-01T08:58:43.835Z,28.20
2018-05-01T09:01:09.747Z,25.20
2018-05-01T09:03:35.936Z,23.10
2018-05-01T09:06:01.956Z,21.70
2018-05-01T09:08:28.779Z,18.70
2018-05-01T09:10:55.136Z,18.60
2018-05-01T09:13:21.554Z,18.40
2018-05-01T09:15:47.542Z,17.80
2018-05-01T09:18:14.311Z,19.40
2018-05-01T09:20:40.489Z,19.40
2018-05-01T09:23:06.463Z,19.70
2018-05-01T09:25:32.475Z,19.10
2018-05-01T09:27:59.167Z,17.80
2018-05-01T09:30:25.981Z,17.20
2018-05-01T09:32:52.043Z,17.10
2018-05-01T09:35:18.207Z,16.70
2018-05-01T09:37:44.193Z,16.40
2018-05-01T09:40:10.100Z,16.30
2018-05-01T09:42:36.074Z,15.80
2018-05-01T09:45:01.920Z,15.60
2018-05-01T09:47:28.679Z,15.40
2018-05-01T09:49:54.507Z,15.40
2018-05-01T09:52:28.203Z,15.70
2018-05-01T09:54:54.207Z,15.60
2018-05-01T09:57:20.220Z,15.60
2018-05-01T09:59:46.231Z,15.80
2018-05-01T10:02:12.948Z,15.80
2018-05-01T10:04:38.942Z,15.80
2018-05-01T10:07:04.953Z,15.90
2018-05-01T10:09:30.925Z,16.00
2018-05-01T10:11:56.895Z,16.10
2018-05-01T10:14:22.981Z,16.10
2018-05-01T10:16:49.944Z,16.40
2018-05-01T10:19:15.923Z,16.70
2018-05-01T10:21:41.997Z,16.90
2018-05-01T10:24:08.771Z,16.60
2018-05-01T10:26:35.470Z,16.80
2018-05-01T10:29:01.495Z,16.80
2018-05-01T10:31:27.471Z,16.90
2018-05-01T10:33:53.632Z,17.00
2018-05-01T10:36:19.789Z,17.00
2018-05-01T10:38:45.882Z,17.20
2018-05-01T10:41:11.711Z,17.30
2018-05-01T10:43:37.756Z,17.40
2018-05-01T10:46:03.765Z,17.30
2018-05-01T10:48:29.783Z,17.50
2018-05-01T10:50:55.818Z,17.90
2018-05-01T10:53:21.841Z,18.10
2018-05-01T10:55:47.801Z,17.90
2018-05-01T10:58:14.092Z,17.70
2018-05-01T11:00:40.829Z,17.10
2018-05-01T11:03:06.860Z,17.10
2018-05-01T11:05:32.851Z,17.10
2018-05-01T11:07:58.823Z,17.30
2018-05-01T11:10:24.833Z,17.30
2018-05-01T11:12:50.839Z,17.80
2018-05-01T11:15:16.855Z,18.10
2018-05-01T11:17:43.557Z,18.20
2018-05-01T11:20:09.530Z,18.20
2018-05-01T11:22:35.514Z,17.90
2018-05-01T11:25:01.496Z,17.70
2018-05-01T11:27:27.463Z,17.40
2018-05-01T11:29:53.843Z,17.20
2018-05-01T11:32:19.890Z,17.20
2018-05-01T11:34:45.858Z,17.00
2018-05-01T11:37:19.048Z,16.70
2018-05-01T11:39:45.493Z,16.90
2018-05-01T11:42:11.477Z,17.10
2018-05-01T11:44:37.446Z,17.40
2018-05-01T11:47:03.421Z,17.30
2018-05-01T11:49:30.118Z,17.40
2018-05-01T11:51:56.108Z,17.40
2018-05-01T11:54:22.842Z,17.70
2018-05-01T11:56:48.838Z,17.60
2018-05-01T11:59:14.818Z,17.70
2018-05-01T12:01:42.302Z,17.60
2018-05-01T12:04:09.054Z,17.50
2018-05-01T12:06:35.004Z,17.60
2018-05-01T12:09:00.955Z,17.50
2018-05-01T12:11:27.022Z,17.40
2018-05-01T12:13:53.041Z,17.50
2018-05-01T12:16:20.584Z,17.70
2018-05-01T12:18:46.590Z,17.50
2018-05-01T12:21:12.552Z,17.50
2018-05-01T12:23:39.301Z,17.50
2018-05-01T12:26:05.285Z,17.40
2018-05-01T12:28:31.345Z,17.40
2018-05-01T12:30:57.393Z,17.30
2018-05-01T12:33:23.408Z,17.30
2018-05-01T12:35:49.448Z,17.40
2018-05-01T12:38:15.420Z,17.50
2018-05-01T12:40:41.387Z,17.60
2018-05-01T12:43:08.145Z,17.20
2018-05-01T12:45:34.858Z,16.80
2018-05-01T12:48:00.838Z,16.80
2018-05-01T12:50:27.596Z,16.50
2018-05-01T12:52:53.596Z,16.50
2018-05-01T12:55:20.071Z,17.00
2018-05-01T12:57:46.156Z,17.30
2018-05-01T13:00:12.162Z,17.50
2018-05-01T13:02:38.941Z,17.40
2018-05-01T13:05:05.031Z,17.30
2018-05-01T13:07:30.949Z,17.10
2018-05-01T13:09:56.961Z,16.70
2018-05-01T13:12:23.048Z,16.50
2018-05-01T13:14:49.131Z,16.40
2018-05-01T13:17:15.090Z,16.40
2018-05-01T13:19:41.086Z,16.40
2018-05-01T13:22:07.057Z,16.40
2018-05-01T13:24:33.033Z,16.40
2018-05-01T13:26:59.035Z,16.40
2018-05-01T13:29:25.179Z,16.60
2018-05-01T13:31:51.244Z,16.60
2018-05-01T13:34:17.261Z,16.80
2018-05-01T13:36:44.093Z,17.70
2018-05-01T13:39:10.055Z,17.70
2018-05-01T13:41:36.807Z,18.00
2018-05-01T13:44:03.586Z,17.90
2018-05-01T13:46:29.558Z,17.90
2018-05-01T13:48:55.664Z,17.90
2018-05-01T13:51:21.614Z,18.00
2018-05-01T13:53:47.578Z,18.10
2018-05-01T13:56:13.562Z,18.20
2018-05-01T13:58:39.530Z,18.10
2018-05-01T14:01:05.496Z,17.80
2018-05-01T14:03:31.551Z,17.70
2018-05-01T14:05:57.440Z,17.30
2018-05-01T14:08:23.413Z,17.50
2018-05-01T14:10:50.229Z,18.00
2018-05-01T14:13:16.249Z,18.00
2018-05-01T14:15:43.073Z,18.00
2018-05-01T14:18:09.074Z,18.00
2018-05-01T14:20:35.054Z,17.50
2018-05-01T14:23:01.029Z,17.10
2018-05-01T14:25:27.103Z,16.70
2018-05-01T14:27:53.090Z,16.80
2018-05-01T14:30:19.091Z,16.80
2018-05-01T14:32:45.119Z,16.60
2018-05-01T14:35:11.838Z,16.10
2018-05-01T14:37:37.813Z,16.00
2018-05-01T14:40:04.543Z,16.10
2018-05-01T14:42:30.531Z,16.10
2018-05-01T14:44:56.566Z,16.20
2018-05-01T14:47:22.987Z,16.40
2018-05-01T14:49:49.731Z,16.30
2018-05-01T14:52:16.429Z,16.50
2018-05-01T14:54:42.422Z,16.50
2018-05-01T14:57:09.117Z,16.70
2018-05-01T14:59:35.095Z,16.60
2018-05-01T15:02:01.066Z,16.40
2018-05-01T15:04:27.031Z,16.20
2018-05-01T15:06:53.029Z,16.10
2018-05-01T15:09:19.111Z,16.20
2018-05-01T15:11:45.047Z,16.60
2018-05-01T15:14:11.015Z,16.90
2018-05-01T15:16:37.734Z,17.60
2018-05-01T15:19:03.700Z,17.60
2018-05-01T15:21:30.405Z,17.40
2018-05-01T15:23:56.495Z,17.40
2018-05-01T15:26:23.234Z,17.10
2018-05-01T15:28:49.216Z,17.00
2018-05-01T15:31:15.336Z,16.80
2018-05-01T15:33:41.217Z,16.40
2018-05-01T15:36:07.182Z,16.20
2018-05-01T15:38:33.171Z,16.20
2018-05-01T15:40:59.403Z,16.30
2018-05-01T15:43:25.424Z,16.60
2018-05-01T15:45:51.497Z,16.90
2018-05-01T15:48:17.465Z,17.00
2018-05-01T15:50:44.181Z,17.40
2018-05-01T15:53:10.195Z,17.30
2018-05-01T15:55:36.154Z,17.30
2018-05-01T15:58:02.153Z,17.50
2018-05-01T16:00:28.146Z,17.20
2018-05-01T16:02:54.118Z,17.20
2018-05-01T16:05:20.836Z,16.50
2018-05-01T16:07:48.406Z,16.20
2018-05-01T16:10:14.369Z,16.20
2018-05-01T16:12:41.078Z,15.70
2018-05-01T16:15:07.105Z,15.70
2018-05-01T16:17:33.103Z,15.50
2018-05-01T16:19:59.825Z,15.30
2018-05-01T16:22:25.824Z,15.30
2018-05-01T16:24:51.850Z,14.80
2018-05-01T16:27:17.821Z,14.80
2018-05-01T16:29:50.969Z,14.90
2018-05-01T16:32:16.953Z,15.00
2018-05-01T16:34:42.938Z,15.20
2018-05-01T16:37:09.696Z,15.40
2018-05-01T16:39:36.444Z,15.10
2018-05-01T16:42:03.317Z,14.90
2018-05-01T16:44:29.330Z,14.90
2018-05-01T16:46:55.302Z,14.60
2018-05-01T16:49:21.327Z,14.40
2018-05-01T16:51:47.309Z,14.40
2018-05-01T16:54:13.277Z,14.20
2018-05-01T16:56:39.977Z,14.00
2018-05-01T16:59:05.986Z,14.00
2018-05-01T17:01:32.687Z,14.00
2018-05-01T17:03:58.653Z,14.00
2018-05-01T17:06:24.652Z,13.90
2018-05-01T17:08:50.631Z,14.00
2018-05-01T17:11:17.367Z,13.90
2018-05-01T17:13:44.096Z,13.70
2018-05-01T17:16:10.057Z,13.70
2018-05-01T17:18:36.016Z,13.70
2018-05-01T17:21:03.368Z,13.60
2018-05-01T17:23:30.092Z,13.50
2018-05-01T17:25:56.055Z,13.50
2018-05-01T17:28:22.110Z,13.50
2018-05-01T17:30:49.109Z,13.50
2018-05-01T17:33:15.077Z,13.50
2018-05-01T17:35:41.059Z,13.40
2018-05-01T17:38:07.120Z,13.30
2018-05-01T17:40:33.084Z,13.30
2018-05-01T17:42:59.226Z,13.20
2018-05-01T17:45:25.355Z,13.10
2018-05-01T17:47:51.403Z,13.00
2018-05-01T17:50:17.449Z,12.90
2018-05-01T17:52:43.424Z,12.70
2018-05-01T17:55:09.395Z,12.50
2018-05-01T17:57:35.391Z,12.50
2018-05-01T18:00:01.387Z,12.50
2018-05-01T18:02:27.362Z,12.40
2018-05-01T18:04:53.411Z,12.40
2018-05-01T18:07:20.243Z,12.20
2018-05-01T18:09:46.993Z,12.00
2018-05-01T18:12:13.710Z,11.80
2018-05-01T18:14:39.676Z,11.80
2018-05-01T18:17:06.371Z,11.70
2018-05-01T18:19:32.337Z,11.60
2018-05-01T18:21:58.283Z,11.50
2018-05-01T18:24:24.275Z,11.40
2018-05-01T18:26:50.293Z,11.30
2018-05-01T18:29:16.339Z,11.20
2018-05-01T18:31:42.362Z,11.00
2018-05-01T18:34:08.387Z,11.10
2018-05-01T18:36:35.084Z,10.90
2018-05-01T18:39:01.157Z,10.80
2018-05-01T18:41:28.689Z,10.60
2018-05-01T18:43:54.764Z,10.60
2018-05-01T18:46:20.776Z,10.50
2018-05-01T18:48:46.774Z,10.30
2018-05-01T18:51:12.758Z,10.20
2018-05-01T18:53:38.724Z,10.10
2018-05-01T18:56:05.662Z,9.90
2018-05-01T18:58:31.621Z,9.80
2018-05-01T19:00:58.356Z,9.60
2018-05-01T19:03:25.178Z,9.50
2018-05-01T19:05:51.183Z,9.50
2018-05-01T19:08:17.180Z,9.40
2018-05-01T19:10:43.174Z,9.30
2018-05-01T19:13:09.112Z,9.10
2018-05-01T19:15:35.142Z,9.10
2018-05-01T19:18:01.127Z,9.00
2018-05-01T19:20:27.099Z,9.00
2018-05-01T19:22:53.072Z,9.00
2018-05-01T19:25:19.227Z,8.90
2018-05-01T19:27:45.187Z,8.80
2018-05-01T19:30:11.905Z,8.60
2018-05-01T19:32:38.028Z,8.50
2018-05-01T19:35:03.995Z,8.60
2018-05-01T19:37:29.962Z,8.60
2018-05-01T19:39:55.957Z,8.60
2018-05-01T19:42:22.136Z,8.60
2018-05-01T19:44:48.107Z,8.50
2018-05-01T19:47:14.111Z,8.40
2018-05-01T19:49:40.072Z,8.40
2018-05-01T19:52:06.035Z,8.30
2018-05-01T19:54:32.015Z,8.20
2018-05-01T19:56:57.985Z,8.00
2018-05-01T19:59:23.995Z,7.80
2018-05-01T20:01:50.100Z,7.70
2018-05-01T20:04:16.801Z,7.50
2018-05-01T20:06:42.783Z,7.50
2018-05-01T20:09:08.743Z,7.40
2018-05-01T20:11:34.704Z,7.40
2018-05-01T20:14:00.670Z,7.40
2018-05-01T20:16:26.709Z,7.40
2018-05-01T20:18:52.771Z,7.40
2018-05-01T20:21:19.575Z,7.30
2018-05-01T20:23:45.578Z,7.30
2018-05-01T20:26:11.784Z,7.30
2018-05-01T20:28:37.743Z,7.40
2018-05-01T20:31:04.475Z,7.30
2018-05-01T20:33:31.371Z,7.30
2018-05-01T20:35:57.343Z,7.30
2018-05-01T20:38:24.159Z,7.30
2018-05-01T20:40:50.231Z,7.20
2018-05-01T20:43:16.215Z,7.10
2018-05-01T20:45:42.963Z,6.80
2018-05-01T20:48:09.677Z,6.70
2018-05-01T20:50:35.637Z,6.70
2018-05-01T20:53:01.611Z,6.70
2018-05-01T20:55:27.588Z,6.60
2018-05-01T20:57:53.587Z,6.50
2018-05-01T21:00:19.758Z,6.50
2018-05-01T21:02:45.713Z,6.70
2018-05-01T21:05:11.662Z,6.60
2018-05-01T21:07:38.435Z,6.60
2018-05-01T21:10:04.404Z,6.60
2018-05-01T21:12:30.365Z,6.50
2018-05-01T21:14:56.366Z,6.50
2018-05-01T21:17:22.630Z,6.30
2018-05-01T21:19:49.417Z,6.50
2018-05-01T21:22:16.368Z,6.40
2018-05-01T21:24:42.266Z,6.40
2018-05-01T21:27:08.231Z,6.40
2018-05-01T21:29:34.215Z,6.30
2018-05-01T21:32:00.176Z,6.30
2018-05-01T21:34:26.300Z,6.30
2018-05-01T21:36:52.294Z,6.30
2018-05-01T21:39:19.592Z,6.30
2018-05-01T21:41:52.590Z,6.30
2018-05-01T21:44:18.545Z,6.20
2018-05-01T21:46:44.525Z,6.20
2018-05-01T21:49:10.491Z,6.20
2018-05-01T21:51:36.462Z,6.20
2018-05-01T21:54:02.637Z,6.20
2018-05-01T21:56:29.381Z,6.20
2018-05-01T21:58:55.366Z,6.20
2018-05-01T22:01:21.346Z,6.20
2018-05-01T22:03:47.363Z,6.20
2018-05-01T22:06:13.323Z,6.20
2018-05-01T22:08:39.273Z,6.20
2018-05-01T22:11:06.026Z,5.90
2018-05-01T22:13:33.038Z,5.90
2018-05-01T22:15:59.015Z,5.90
2018-05-01T22:18:25.839Z,5.90
2018-05-01T22:20:51.827Z,5.80
2018-05-01T22:23:17.774Z,5.80
2018-05-01T22:25:43.791Z,5.70
2018-05-01T22:28:10.491Z,5.70
2018-05-01T22:30:36.447Z,5.70
2018-05-01T22:33:03.161Z,5.70
2018-05-01T22:35:29.158Z,5.70
2018-05-01T22:37:55.870Z,5.70
2018-05-01T22:40:21.964Z,5.70
2018-05-01T22:42:47.935Z,5.70
2018-05-01T22:45:13.929Z,5.70
2018-05-01T22:47:40.642Z,5.80
2018-05-01T22:50:06.597Z,5.90
2018-05-01T22:52:32.574Z,5.80
2018-05-01T22:54:58.545Z,5.90
2018-05-01T22:57:24.533Z,5.90
2018-05-01T22:59:50.539Z,5.90
2018-05-01T23:02:17.479Z,5.70
2018-05-01T23:04:43.433Z,5.70
2018-05-01T23:07:09.396Z,5.70
2018-05-01T23:09:35.378Z,5.60
2018-05-01T23:12:01.375Z,5.60
2018-05-01T23:14:27.340Z,5.70
2018-05-01T23:16:53.317Z,5.70
2018-05-01T23:19:20.211Z,5.50
2018-05-01T23:21:46.161Z,5.50
2018-05-01T23:24:12.321Z,5.50
2018-05-01T23:26:38.275Z,5.40
2018-05-01T23:29:04.227Z,5.40
2018-05-01T23:31:30.975Z,5.30
2018-05-01T23:33:57.693Z,5.40
2018-05-01T23:36:23.652Z,5.30
2018-05-01T23:38:49.777Z,5.40
2018-05-01T23:41:15.730Z,5.40
2018-05-01T23:43:42.436Z,5.30
2018-05-01T23:46:08.589Z,5.30
2018-05-01T23:48:34.909Z,5.30
2018-05-01T23:51:00.865Z,5.30
2018-05-01T23:53:26.876Z,5.40
2018-05-01T23:55:53.607Z,5.40
2018-05-01T23:58:19.650Z,5.30
